Time;durP1;ratioP1;P1;durP2;ratioP2;P2;SDS_P1;SDS_P2;PMS_P1;PMS_P2;Temp;Humidity;BMP_temperature;BMP_pressure;BME280_temperature;BME280_humidity;BME280_pressure;Samples;Min_cycle;Max_cycle;Signal;HPM_P1;HPM_P2
2022/06/22 00:01:46;;;;;;;4.47;1.73;;;17.20;83.70;;;;;;5012315;28;20026;-76
2022/06/22 00:04:26;;;;;;;4.05;1.58;;;17.00;84.40;;;;;;5012518;28;20113;-75
2022/06/22 00:06:56;;;;;;;5.18;1.77;;;17.00;84.80;;;;;;5012524;28;20105;-75
2022/06/22 00:09:40;;;;;;;5.80;2.05;;;17.00;84.80;;;;;;5012267;28;20048;-75
2022/06/22 00:12:20;;;;;;;2.47;1.38;;;16.90;85.50;;;;;;5012165;28;20501;-75
2022/06/22 00:14:49;;;;;;;3.25;1.48;;;16.80;85.90;;;;;;5012246;28;20048;-75
2022/06/22 00:17:36;;;;;;;2.47;1.35;;;16.70;86.70;;;;;;5012212;28;20041;-75
2022/06/22 00:20:20;;;;;;;2.70;1.65;;;16.60;86.90;;;;;;5012199;28;20026;-74
2022/06/22 00:22:58;;;;;;;6.68;1.77;;;16.60;87.30;;;;;;5010909;28;20034;-74
2022/06/22 00:25:36;;;;;;;8.02;1.60;;;16.40;88.10;;;;;;5011953;28;20045;-75
2022/06/22 00:28:24;;;;;;;5.05;1.50;;;16.40;88.50;;;;;;5011615;28;20044;-75
2022/06/22 00:30:50;;;;;;;6.03;1.90;;;16.30;88.90;;;;;;5012648;28;20014;-76
2022/06/22 00:33:23;;;;;;;3.47;1.60;;;16.30;89.20;;;;;;5011572;28;20034;-75
2022/06/22 00:35:53;;;;;;;3.50;1.92;;;16.30;89.60;;;;;;5011953;28;20045;-74
2022/06/22 00:38:31;;;;;;;4.90;1.70;;;16.20;90.00;;;;;;5010603;28;20496;-74
2022/06/22 00:41:17;;;;;;;3.38;1.55;;;16.30;90.20;;;;;;5010484;28;20491;-75
2022/06/22 00:43:43;;;;;;;4.80;1.45;;;16.20;90.30;;;;;;5011272;28;20018;-75
2022/06/22 00:46:18;;;;;;;5.05;2.00;;;16.20;90.30;;;;;;5011430;28;20030;-74
2022/06/22 00:48:47;;;;;;;5.93;1.75;;;16.10;90.50;;;;;;5011982;28;20017;-74
2022/06/22 00:51:17;;;;;;;5.00;1.65;;;16.10;90.70;;;;;;5010757;28;20026;-74
2022/06/22 00:53:56;;;;;;;3.17;1.50;;;16.10;90.80;;;;;;5010346;28;20198;-74
2022/06/22 00:56:41;;;;;;;5.68;2.10;;;16.10;91.00;;;;;;5010295;28;20045;-75
2022/06/22 00:59:22;;;;;;;5.88;2.00;;;16.10;91.00;;;;;;4994139;28;20030;-75
2022/06/22 01:02:07;;;;;;;4.20;2.05;;;16.10;91.10;;;;;;5009911;28;20029;-74
2022/06/22 01:04:48;;;;;;;5.18;1.95;;;16.10;91.10;;;;;;5010109;28;20030;-75
2022/06/22 01:07:32;;;;;;;4.40;1.95;;;16.10;91.10;;;;;;5009857;28;20037;-75
2022/06/22 01:10:00;;;;;;;6.53;2.00;;;16.10;91.20;;;;;;5010481;28;20436;-75
2022/06/22 01:12:45;;;;;;;7.53;1.90;;;16.10;91.30;;;;;;5010428;28;20061;-75
2022/06/22 01:15:50;;;;;;;7.72;2.58;;;16.10;91.40;;;;;;5011098;28;20030;-75
2022/06/22 01:18:29;;;;;;;7.47;2.33;;;16.00;91.70;;;;;;5008519;28;20030;-76
2022/06/22 01:20:58;;;;;;;4.65;1.80;;;16.00;91.90;;;;;;5011052;28;20042;-75
2022/06/22 01:23:32;;;;;;;3.35;1.95;;;16.00;92.00;;;;;;5011083;28;20111;-76
2022/06/22 01:26:21;;;;;;;6.90;2.40;;;16.00;92.20;;;;;;5009794;28;20033;-76
2022/06/22 01:28:58;;;;;;;5.40;2.22;;;15.90;92.20;;;;;;5011058;28;20113;-76
2022/06/22 01:31:24;;;;;;;8.00;1.77;;;16.00;92.20;;;;;;5011070;28;20088;-76
2022/06/22 01:33:52;;;;;;;5.82;1.98;;;16.00;92.10;;;;;;5011101;28;20042;-76
2022/06/22 01:36:39;;;;;;;2.72;1.90;;;16.00;92.40;;;;;;5023193;28;20344;-76
2022/06/22 01:39:06;;;;;;;5.60;2.00;;;15.90;92.40;;;;;;5030467;28;20037;-75
2022/06/22 01:42:09;;;;;;;5.07;2.03;;;15.90;92.50;;;;;;5030387;28;20467;-75
2022/06/22 01:44:43;;;;;;;5.43;2.10;;;15.90;92.50;;;;;;5020129;28;20034;-74
2022/06/22 01:47:25;;;;;;;3.15;2.05;;;15.90;92.60;;;;;;5029379;28;20045;-75
2022/06/22 01:49:50;;;;;;;3.90;2.10;;;15.90;92.80;;;;;;5030571;28;20029;-76
2022/06/22 01:52:31;;;;;;;5.03;1.90;;;15.90;92.80;;;;;;5030438;28;20025;-75
2022/06/22 01:55:04;;;;;;;44.25;24.60;;;15.90;92.90;;;;;;5029827;28;20452;-75
2022/06/22 01:57:40;;;;;;;14.23;6.47;;;15.80;93.10;;;;;;5030572;28;20046;-77
2022/06/22 02:00:11;;;;;;;6.10;2.85;;;15.80;93.50;;;;;;5030317;28;20030;-76
2022/06/22 02:03:13;;;;;;;9.75;2.30;;;15.70;93.10;;;;;;5029346;28;20502;-75
2022/06/22 02:05:43;;;;;;;13.05;3.75;;;15.70;93.00;;;;;;5030215;28;20053;-75
2022/06/22 02:08:36;;;;;;;5.45;2.47;;;15.80;93.30;;;;;;5030302;28;20052;-75
2022/06/22 02:11:15;;;;;;;6.28;2.05;;;15.70;93.40;;;;;;5030826;28;20033;-75
2022/06/22 02:13:56;;;;;;;4.20;2.60;;;15.70;93.20;;;;;;5034075;28;20033;-75
2022/06/22 02:16:42;;;;;;;5.50;2.67;;;15.80;93.30;;;;;;5034090;28;20471;-74
2022/06/22 02:19:14;;;;;;;3.00;2.00;;;15.70;93.40;;;;;;5033914;28;20370;-75
2022/06/22 02:21:56;;;;;;;3.17;1.98;;;15.70;93.60;;;;;;5034687;28;20041;-75
2022/06/22 02:24:27;;;;;;;6.60;2.58;;;15.70;93.60;;;;;;5033839;28;20384;-76
2022/06/22 02:27:16;;;;;;;4.97;2.25;;;15.70;93.60;;;;;;5033659;28;20032;-75
2022/06/22 02:29:46;;;;;;;3.03;1.90;;;15.80;93.60;;;;;;5034194;28;20521;-75
2022/06/22 02:32:17;;;;;;;4.30;2.28;;;15.70;93.70;;;;;;5034092;28;20057;-75
2022/06/22 02:34:47;;;;;;;5.00;2.30;;;15.70;93.70;;;;;;5033610;28;20037;-75
2022/06/22 02:37:15;;;;;;;5.13;2.47;;;15.70;93.90;;;;;;5032576;28;20127;-74
2022/06/22 02:39:47;;;;;;;7.30;2.30;;;15.70;93.80;;;;;;5033900;28;20049;-75
2022/06/22 02:44:59;;;;;;;8.43;3.20;;;15.90;93.50;;;;;;5033592;28;20040;-75
2022/06/22 02:47:29;;;;;;;6.47;2.20;;;15.90;93.50;;;;;;5033619;28;20037;-75
2022/06/22 02:50:17;;;;;;;8.15;3.17;;;15.90;93.50;;;;;;5033373;28;20111;-75
2022/06/22 02:52:52;;;;;;;6.57;2.80;;;15.90;93.30;;;;;;5033339;28;20523;-75
2022/06/22 02:55:21;;;;;;;6.53;2.88;;;16.00;93.30;;;;;;5033280;28;20355;-76
2022/06/22 02:57:53;;;;;;;6.90;2.80;;;15.90;93.40;;;;;;5033685;28;20018;-75
2022/06/22 03:00:24;;;;;;;5.70;2.80;;;15.90;93.30;;;;;;5033323;28;20109;-76
2022/06/22 03:02:57;;;;;;;6.35;2.50;;;15.90;93.30;;;;;;5033409;28;20075;-76
2022/06/22 03:05:25;;;;;;;4.57;2.58;;;15.90;93.00;;;;;;5033182;28;20052;-75
2022/06/22 03:07:55;;;;;;;5.90;3.15;;;15.90;93.40;;;;;;5032946;28;20037;-74
2022/06/22 03:10:51;;;;;;;7.43;2.85;;;15.80;93.60;;;;;;5032875;28;20452;-75
2022/06/22 03:13:22;;;;;;;8.10;2.80;;;15.80;93.60;;;;;;5033348;28;20072;-74
2022/06/22 03:15:48;;;;;;;6.72;3.20;;;15.70;93.70;;;;;;5033447;28;20100;-74
2022/06/22 03:18:24;;;;;;;5.05;2.67;;;15.80;93.40;;;;;;5031906;28;20044;-74
2022/06/22 03:21:06;;;;;;;4.80;2.85;;;15.80;93.20;;;;;;5031736;28;20060;-75
2022/06/22 03:23:35;;;;;;;7.55;2.90;;;15.80;92.90;;;;;;5032599;28;20405;-74
2022/06/22 03:26:23;;;;;;;8.23;3.40;;;15.90;92.80;;;;;;5031670;28;20040;-74
2022/06/22 03:29:22;;;;;;;5.00;2.80;;;15.80;93.20;;;;;;5032819;28;20025;-74
2022/06/22 03:32:01;;;;;;;11.60;4.30;;;15.70;93.00;;;;;;5031132;28;20500;-75
2022/06/22 03:34:37;;;;;;;6.20;2.97;;;15.40;93.40;;;;;;5032390;28;20056;-74
2022/06/22 03:37:24;;;;;;;18.02;3.95;;;15.50;93.50;;;;;;5032705;28;20100;-75
2022/06/22 03:39:56;;;;;;;9.85;3.90;;;15.60;93.30;;;;;;5032844;28;20470;-75
2022/06/22 03:42:45;;;;;;;5.68;2.53;;;15.60;93.20;;;;;;5032443;28;20038;-75
2022/06/22 03:45:18;;;;;;;8.35;3.13;;;15.70;93.20;;;;;;5030943;28;20041;-76
2022/06/22 03:48:16;;;;;;;5.93;2.80;;;15.60;93.20;;;;;;5031234;28;20033;-76
2022/06/22 03:50:48;;;;;;;;;;;15.70;93.30;;;;;;5031222;28;20040;-75
2022/06/22 03:53:13;;;;;;;6.90;2.80;;;15.70;93.20;;;;;;5032273;28;19909;-75
2022/06/22 03:55:47;;;;;;;7.30;2.72;;;15.80;93.00;;;;;;5032186;28;20044;-75
2022/06/22 03:58:14;;;;;;;10.57;2.70;;;15.80;93.30;;;;;;5032306;28;20122;-75
2022/06/22 04:00:42;;;;;;;5.20;2.80;;;15.80;93.40;;;;;;5032713;28;20029;-75
2022/06/22 04:03:09;;;;;;;7.72;2.58;;;15.90;93.30;;;;;;5032177;28;20112;-75
2022/06/22 04:05:49;;;;;;;6.07;2.70;;;15.90;93.40;;;;;;5031059;28;20424;-74
2022/06/22 04:08:35;;;;;;;6.68;2.55;;;15.90;93.40;;;;;;5031835;28;20033;-75
2022/06/22 04:11:28;;;;;;;6.05;2.60;;;15.80;93.40;;;;;;5032095;28;20037;-74
2022/06/22 04:14:10;;;;;;;14.02;3.35;;;15.80;93.30;;;;;;5032097;28;20486;-74
2022/06/22 04:16:42;;;;;;;6.60;2.80;;;16.00;93.00;;;;;;5032289;28;20041;-75
2022/06/22 04:19:40;;;;;;;10.13;3.63;;;16.00;92.70;;;;;;5031841;28;20063;-76
2022/06/22 04:22:15;;;;;;;7.35;2.55;;;16.00;92.50;;;;;;5031569;28;20021;-75
2022/06/22 04:25:13;;;;;;;4.47;2.13;;;16.10;92.90;;;;;;5032092;28;20026;-76
2022/06/22 04:27:43;;;;;;;11.27;2.50;;;16.00;93.30;;;;;;5031648;28;20101;-76
2022/06/22 04:30:12;;;;;;;8.40;3.28;;;15.90;93.40;;;;;;5031464;28;20132;-76
2022/06/22 04:32:41;;;;;;;5.85;2.30;;;15.90;93.50;;;;;;5030425;28;20056;-76
2022/06/22 04:35:34;;;;;;;5.40;2.70;;;15.90;93.50;;;;;;5029760;28;20050;-75
2022/06/22 04:38:12;;;;;;;8.38;2.55;;;15.90;93.60;;;;;;5031590;28;20038;-76
2022/06/22 04:40:49;;;;;;;6.47;2.45;;;16.00;93.50;;;;;;5031533;28;20018;-75
2022/06/22 04:43:15;;;;;;;6.97;2.80;;;16.00;93.60;;;;;;5031272;28;20019;-75
2022/06/22 04:45:44;;;;;;;11.20;2.72;;;16.00;93.50;;;;;;5030697;28;20036;-75
2022/06/22 04:48:20;;;;;;;4.55;2.22;;;16.10;93.60;;;;;;5031320;28;20042;-75
2022/06/22 04:50:48;;;;;;;8.55;2.45;;;16.20;93.70;;;;;;5031197;28;20034;-75
2022/06/22 04:53:27;;;;;;;8.90;2.50;;;16.30;93.40;;;;;;5031130;28;20068;-75
2022/06/22 04:55:54;;;;;;;7.03;2.47;;;16.40;93.10;;;;;;5030111;28;20095;-76
2022/06/22 04:58:35;;;;;;;13.27;8.55;;;16.30;93.00;;;;;;5030197;28;20037;-76
2022/06/22 05:01:04;;;;;;;8.60;4.10;;;16.40;92.90;;;;;;5031098;28;20025;-75
2022/06/22 05:03:30;;;;;;;11.63;3.20;;;16.50;92.70;;;;;;5030357;28;20063;-75
2022/06/22 05:06:04;;;;;;;5.05;2.55;;;16.50;92.90;;;;;;5030846;28;20087;-77
2022/06/22 05:09:05;;;;;;;3.83;2.25;;;16.50;93.10;;;;;;5031062;28;20025;-76
2022/06/22 05:11:43;;;;;;;4.25;2.42;;;16.50;93.20;;;;;;5030802;28;20057;-77
2022/06/22 05:14:20;;;;;;;6.65;2.28;;;16.60;93.10;;;;;;5030784;28;20040;-75
2022/06/22 05:16:53;;;;;;;5.90;2.30;;;16.70;92.70;;;;;;5030891;28;20128;-78
2022/06/22 05:19:25;;;;;;;7.18;2.47;;;16.80;92.30;;;;;;5012848;28;20029;-76
2022/06/22 05:21:51;;;;;;;5.60;2.22;;;16.90;92.10;;;;;;5011455;28;20021;-77
2022/06/22 05:24:29;;;;;;;7.50;2.88;;;17.00;91.90;;;;;;5011157;28;20412;-79
2022/06/22 05:26:57;;;;;;;4.57;2.92;;;17.10;91.90;;;;;;5009736;28;20026;-77
2022/06/22 05:29:32;;;;;;;5.75;2.53;;;17.10;91.90;;;;;;5011182;28;20026;-75
2022/06/22 05:32:03;;;;;;;9.88;2.65;;;17.10;91.80;;;;;;5011023;28;20034;-76
2022/06/22 05:34:36;;;;;;;5.78;2.10;;;17.30;91.80;;;;;;5009666;28;20407;-76
2022/06/22 05:37:19;;;;;;;5.25;3.22;;;17.30;91.70;;;;;;5002643;28;20477;-78
2022/06/22 05:39:46;;;;;;;9.98;3.20;;;17.30;91.60;;;;;;5011634;28;20025;-77
2022/06/22 05:42:14;;;;;;;11.20;2.85;;;17.50;91.60;;;;;;5009900;28;20034;-78
2022/06/22 05:44:40;;;;;;;5.60;2.38;;;17.60;91.60;;;;;;5010838;28;20455;-81
2022/06/22 05:47:16;;;;;;;4.47;2.35;;;17.70;91.50;;;;;;5013617;28;20049;-76
2022/06/22 05:49:46;;;;;;;8.23;2.63;;;17.70;91.30;;;;;;5014608;28;20034;-77
2022/06/22 05:52:24;;;;;;;4.60;2.42;;;17.80;91.40;;;;;;5013876;28;20022;-78
2022/06/22 05:54:57;;;;;;;5.30;2.10;;;17.80;91.40;;;;;;5015060;28;20041;-75
2022/06/22 05:57:36;;;;;;;6.38;2.75;;;17.90;91.60;;;;;;5013562;28;20022;-77
2022/06/22 06:00:13;;;;;;;4.50;2.30;;;18.10;91.60;;;;;;5013467;28;20288;-78
2022/06/22 06:02:51;;;;;;;6.03;2.35;;;18.30;91.60;;;;;;5014434;28;20029;-76
2022/06/22 06:05:27;;;;;;;8.65;2.28;;;18.50;91.40;;;;;;5014356;28;20109;-74
2022/06/22 06:07:57;;;;;;;7.68;2.60;;;18.60;91.30;;;;;;5014118;28;20371;-75
2022/06/22 06:10:40;;;;;;;13.27;3.80;;;18.70;91.10;;;;;;5014245;28;20034;-75
2022/06/22 06:13:38;;;;;;;7.40;2.90;;;18.60;90.90;;;;;;5014487;28;20030;-74
2022/06/22 06:16:33;;;;;;;7.65;2.28;;;18.60;90.90;;;;;;5014093;28;20026;-76
2022/06/22 06:19:04;;;;;;;10.02;2.47;;;18.60;91.00;;;;;;5013655;28;20045;-73
2022/06/22 06:21:36;;;;;;;12.15;2.53;;;18.70;90.90;;;;;;5014317;28;20033;-76
2022/06/22 06:24:24;;;;;;;8.75;4.35;;;18.80;90.90;;;;;;5014039;28;20464;-74
2022/06/22 06:27:34;;;;;;;6.93;2.60;;;18.90;90.90;;;;;;5013838;28;20523;-75
2022/06/22 06:30:22;;;;;;;5.22;2.03;;;19.10;90.60;;;;;;5013929;28;20461;-75
2022/06/22 06:32:57;;;;;;;6.72;2.85;;;19.30;90.50;;;;;;5013988;28;20532;-75
2022/06/22 06:35:30;;;;;;;5.72;2.40;;;19.40;90.20;;;;;;5013808;28;20520;-75
2022/06/22 06:38:08;;;;;;;3.92;2.35;;;19.30;90.50;;;;;;5013669;28;20038;-75
2022/06/22 06:40:57;;;;;;;12.05;2.75;;;19.30;90.40;;;;;;5013758;28;20026;-77
2022/06/22 06:43:48;;;;;;;6.15;2.30;;;19.40;90.40;;;;;;5013972;28;20068;-74
2022/06/22 06:46:26;;;;;;;19.52;3.13;;;19.60;90.40;;;;;;5014240;28;20018;-74
2022/06/22 06:49:14;;;;;;;;;;;19.60;90.30;;;;;;5014674;28;20053;-74
2022/06/22 06:51:47;;;;;;;5.28;2.80;;;19.70;90.30;;;;;;5010343;28;19909;-74
2022/06/22 06:54:35;;;;;;;5.60;2.25;;;19.70;90.30;;;;;;5014335;28;20030;-74
2022/06/22 06:57:10;;;;;;;;;;;19.70;90.10;;;;;;5014941;28;20041;-75
2022/06/22 06:59:36;;;;;;;4.63;2.25;;;19.80;90.30;;;;;;5013599;28;20276;-75
2022/06/22 07:02:13;;;;;;;9.90;2.13;;;19.90;90.00;;;;;;5013423;28;20109;-75
2022/06/22 07:04:39;;;;;;;4.65;2.10;;;20.10;88.80;;;;;;5013232;28;20096;-74
2022/06/22 07:07:33;;;;;;;7.88;2.50;;;20.10;88.10;;;;;;5013286;28;20025;-74
2022/06/22 07:10:29;;;;;;;6.20;2.85;;;20.30;87.20;;;;;;5014545;28;20509;-75
2022/06/22 07:13:01;;;;;;;5.10;1.98;;;20.40;85.50;;;;;;5014595;28;20030;-74
2022/06/22 07:15:40;;;;;;;10.23;2.42;;;20.60;86.10;;;;;;5014376;28;20400;-75
2022/06/22 07:18:21;;;;;;;9.63;2.15;;;21.00;84.20;;;;;;5014146;28;20038;-75
2022/06/22 07:20:52;;;;;;;4.00;1.58;;;21.30;83.70;;;;;;5014312;28;20026;-75
2022/06/22 07:23:30;;;;;;;4.22;2.00;;;21.50;81.90;;;;;;5014115;28;20096;-75
2022/06/22 07:26:03;;;;;;;6.05;1.77;;;21.40;81.40;;;;;;5012734;28;20425;-74
2022/06/22 07:28:36;;;;;;;9.77;1.85;;;21.40;82.40;;;;;;5013804;28;20034;-74
2022/06/22 07:31:22;;;;;;;4.93;1.38;;;21.30;80.60;;;;;;5014285;28;20026;-74
2022/06/22 07:33:56;;;;;;;5.15;1.90;;;21.40;81.80;;;;;;5014621;28;20081;-75
2022/06/22 07:36:53;;;;;;;5.45;1.55;;;21.50;81.40;;;;;;5013392;28;20456;-74
2022/06/22 07:39:19;;;;;;;;;;;21.50;81.40;;;;;;5014682;28;20092;-75
2022/06/22 07:41:44;;;;;;;5.72;1.60;;;21.50;79.50;;;;;;5013029;28;19909;-74
2022/06/22 07:44:17;;;;;;;6.88;1.50;;;21.50;80.10;;;;;;5012639;28;20034;-76
2022/06/22 07:47:09;;;;;;;7.80;1.85;;;21.60;79.90;;;;;;5012734;28;20038;-76
2022/06/22 07:49:42;;;;;;;5.97;2.03;;;21.70;79.70;;;;;;5012588;28;20034;-75
2022/06/22 07:52:13;;;;;;;4.13;1.80;;;21.50;78.70;;;;;;5013255;28;20025;-75
2022/06/22 07:54:42;;;;;;;4.43;1.83;;;21.60;79.60;;;;;;5013061;28;20018;-73
2022/06/22 07:57:31;;;;;;;2.97;1.45;;;21.80;78.60;;;;;;5012505;28;20030;-76
2022/06/22 07:59:59;;;;;;;6.93;1.70;;;22.10;77.80;;;;;;5013201;28;20113;-75
2022/06/22 08:02:30;;;;;;;5.78;1.70;;;22.20;78.50;;;;;;5011210;28;20344;-75
2022/06/22 08:05:19;;;;;;;3.38;1.17;;;22.50;76.60;;;;;;5011995;28;20030;-76
2022/06/22 08:07:46;;;;;;;4.68;1.63;;;22.70;76.70;;;;;;5011988;28;20459;-76
2022/06/22 08:10:20;;;;;;;4.32;1.70;;;23.10;76.00;;;;;;5011217;28;20030;-74
2022/06/22 08:13:03;;;;;;;5.35;1.50;;;23.50;74.50;;;;;;5012455;28;20052;-75
2022/06/22 08:15:35;;;;;;;4.95;1.33;;;24.00;74.70;;;;;;5012261;28;20046;-74
2022/06/22 08:18:02;;;;;;;3.85;1.33;;;25.00;73.80;;;;;;5011939;28;20324;-74
2022/06/22 08:20:31;;;;;;;5.30;1.58;;;25.90;70.30;;;;;;5010519;28;20338;-74
2022/06/22 08:23:04;;;;;;;4.53;1.40;;;25.90;67.30;;;;;;5010572;28;20176;-74
2022/06/22 08:25:31;;;;;;;5.10;1.63;;;26.40;68.70;;;;;;5011657;28;20026;-74
2022/06/22 08:27:58;;;;;;;3.78;1.63;;;26.80;65.90;;;;;;5011831;28;20113;-74
2022/06/22 08:30:24;;;;;;;3.25;1.58;;;27.20;64.30;;;;;;5011655;28;20026;-75
2022/06/22 08:32:54;;;;;;;6.35;1.75;;;27.20;59.40;;;;;;5011515;28;20040;-76
2022/06/22 08:35:41;;;;;;;6.75;1.58;;;27.90;64.00;;;;;;5011552;28;20062;-75
2022/06/22 08:38:20;;;;;;;5.35;2.45;;;29.30;57.70;;;;;;5011501;28;20029;-76
2022/06/22 08:41:17;;;;;;;4.93;1.65;;;29.60;57.10;;;;;;5011623;28;20061;-75
2022/06/22 08:43:51;;;;;;;4.80;1.42;;;30.50;53.80;;;;;;5011405;28;20041;-75
2022/06/22 08:46:51;;;;;;;9.10;1.27;;;30.70;52.90;;;;;;5011707;28;20105;-74
2022/06/22 08:49:37;;;;;;;4.07;1.45;;;30.70;52.80;;;;;;5010063;28;20432;-74
2022/06/22 08:52:03;;;;;;;6.38;1.75;;;30.90;50.90;;;;;;5011184;28;20040;-74
2022/06/22 08:54:44;;;;;;;7.65;2.08;;;31.10;50.30;;;;;;5011605;28;20409;-74
2022/06/22 08:57:53;;;;;;;3.70;1.15;;;32.10;50.20;;;;;;5011020;28;20034;-76
2022/06/22 09:00:40;;;;;;;3.92;1.02;;;31.40;48.60;;;;;;5010095;28;20408;-75
2022/06/22 09:03:17;;;;;;;4.03;1.10;;;30.30;49.40;;;;;;5011194;28;20498;-75
2022/06/22 09:06:29;;;;;;;4.45;1.63;;;31.10;48.50;;;;;;5010977;28;20292;-75
2022/06/22 09:09:33;;;;;;;6.90;1.77;;;30.40;50.30;;;;;;5010084;28;20049;-74
2022/06/22 09:12:10;;;;;;;5.78;1.58;;;31.10;48.20;;;;;;5010936;28;20038;-75
2022/06/22 09:14:42;;;;;;;4.38;1.08;;;31.10;47.30;;;;;;5010035;28;20113;-74
2022/06/22 09:17:16;;;;;;;5.13;1.48;;;31.40;48.30;;;;;;5011072;28;20033;-73
2022/06/22 09:19:48;;;;;;;4.25;1.50;;;31.00;48.10;;;;;;5010511;28;20026;-74
2022/06/22 09:22:35;;;;;;;7.47;1.35;;;30.80;48.80;;;;;;5010887;28;20018;-75
2022/06/22 09:25:05;;;;;;;5.07;1.85;;;30.30;48.70;;;;;;5010635;28;20393;-74
2022/06/22 09:27:40;;;;;;;4.28;1.60;;;29.60;46.30;;;;;;5011032;28;20049;-75
2022/06/22 09:30:47;;;;;;;3.92;1.10;;;28.60;46.70;;;;;;5010632;28;20676;-74
2022/06/22 09:33:32;;;;;;;5.05;1.52;;;28.20;47.20;;;;;;5010909;28;20037;-74
2022/06/22 09:36:27;;;;;;;7.25;2.03;;;28.00;50.00;;;;;;5010682;28;20034;-74
2022/06/22 09:39:28;;;;;;;7.47;1.35;;;28.20;49.80;;;;;;5008590;28;20037;-75
2022/06/22 09:42:20;;;;;;;6.07;1.70;;;28.60;49.50;;;;;;5010931;28;20034;-76
2022/06/22 09:45:09;;;;;;;9.35;1.98;;;28.70;49.50;;;;;;5010538;28;20025;-76
2022/06/22 09:47:35;;;;;;;6.25;1.42;;;28.70;49.10;;;;;;5010925;28;20038;-76
2022/06/22 09:50:19;;;;;;;3.10;1.30;;;28.50;50.40;;;;;;5010747;28;20408;-76
2022/06/22 09:53:00;;;;;;;4.95;1.30;;;28.70;49.90;;;;;;5010889;28;20450;-75
2022/06/22 09:58:54;;;;;;;2.13;1.20;;;27.90;48.60;;;;;;5010636;28;20076;-76
2022/06/22 10:01:45;;;;;;;3.92;1.60;;;27.90;50.30;;;;;;5010368;28;20345;-76
2022/06/22 10:04:41;;;;;;;3.42;1.40;;;27.70;50.50;;;;;;5010748;28;20029;-76
2022/06/22 10:07:41;;;;;;;8.57;1.60;;;27.80;48.60;;;;;;5010242;28;20048;-76
2022/06/22 10:10:45;;;;;;;6.07;1.52;;;27.40;48.10;;;;;;5009125;28;20054;-75
2022/06/22 10:13:25;;;;;;;6.75;1.27;;;27.10;48.10;;;;;;5009493;28;20539;-75
2022/06/22 10:16:23;;;;;;;3.42;1.00;;;27.10;46.70;;;;;;5010814;28;20382;-75
2022/06/22 10:19:06;;;;;;;4.03;1.42;;;27.30;47.20;;;;;;5009987;28;20034;-75
2022/06/22 10:21:35;;;;;;;6.03;1.67;;;27.60;48.70;;;;;;5009230;28;20034;-76
2022/06/22 10:24:29;;;;;;;5.13;1.88;;;27.80;48.10;;;;;;5010155;28;20044;-76
2022/06/22 10:27:00;;;;;;;5.05;2.45;;;27.90;47.70;;;;;;5009995;28;20057;-74
2022/06/22 10:29:40;;;;;;;5.32;1.33;;;27.90;47.70;;;;;;5010269;28;20157;-75
2022/06/22 10:32:36;;;;;;;3.10;1.02;;;28.20;47.00;;;;;;5010666;28;20034;-75
2022/06/22 10:35:43;;;;;;;3.88;1.13;;;27.90;46.00;;;;;;5013502;28;20034;-76
2022/06/22 10:38:27;;;;;;;;;;;28.30;46.20;;;;;;4992021;28;20113;-74
2022/06/22 10:47:08;;;;;;;2.90;1.17;;;28.60;43.40;;;;;;5013570;28;20053;-76
2022/06/22 10:49:56;;;;;;;3.47;0.98;;;28.60;43.90;;;;;;5013435;28;20026;-75
2022/06/22 10:52:58;;;;;;;3.08;1.00;;;28.30;46.70;;;;;;5013356;28;20037;-75
2022/06/22 10:55:33;;;;;;;2.47;0.93;;;28.20;45.00;;;;;;5013336;28;20434;-76
2022/06/22 10:58:07;;;;;;;2.88;1.50;;;28.10;45.40;;;;;;5013676;28;20030;-75
2022/06/22 11:01:06;;;;;;;1.85;1.10;;;28.10;46.60;;;;;;5013318;28;20046;-76
2022/06/22 11:04:08;;;;;;;4.35;1.20;;;27.60;46.30;;;;;;5013287;28;20180;-75
2022/06/22 11:06:54;;;;;;;7.72;2.20;;;27.30;48.00;;;;;;5011687;28;20049;-75
2022/06/22 11:09:28;;;;;;;3.58;1.27;;;27.60;46.50;;;;;;5012789;28;20046;-77
2022/06/22 11:12:19;;;;;;;1.48;0.73;;;27.80;46.80;;;;;;5012965;28;20078;-75
2022/06/22 11:15:06;;;;;;;2.78;0.90;;;27.80;46.60;;;;;;5013240;28;20464;-78
2022/06/22 11:17:53;;;;;;;2.33;1.00;;;27.90;46.30;;;;;;5012976;28;20117;-76
2022/06/22 11:20:37;;;;;;;2.53;1.17;;;27.50;47.10;;;;;;5012831;28;20029;-76
2022/06/22 11:23:16;;;;;;;5.47;0.98;;;27.20;48.00;;;;;;5012862;28;20259;-75
2022/06/22 11:32:22;;;;;;;4.38;1.23;;;27.80;45.10;;;;;;5012694;28;20049;-77
2022/06/22 11:35:11;;;;;;;2.30;0.90;;;28.00;44.10;;;;;;5012319;28;20038;-77
2022/06/22 11:38:08;;;;;;;4.25;1.35;;;27.80;44.30;;;;;;5011523;28;20472;-79
2022/06/22 11:40:42;;;;;;;3.00;1.05;;;27.50;45.10;;;;;;5012502;28;20088;-78
2022/06/22 11:43:33;;;;;;;9.38;4.07;;;27.40;45.40;;;;;;5012728;28;20500;-80
2022/06/22 11:46:19;;;;;;;6.40;1.20;;;27.50;45.50;;;;;;5012838;28;20040;-78
2022/06/22 11:48:57;;;;;;;2.80;1.13;;;27.50;45.10;;;;;;5012432;28;20049;-78
2022/06/22 11:51:40;;;;;;;5.38;1.05;;;27.60;45.30;;;;;;5012147;28;20057;-78
2022/06/22 11:54:25;;;;;;;4.72;1.00;;;27.70;44.80;;;;;;5011009;28;20100;-77
2022/06/22 11:56:59;;;;;;;5.78;0.95;;;27.20;44.70;;;;;;5012460;28;20041;-76
2022/06/22 11:59:31;;;;;;;5.20;1.67;;;27.10;44.90;;;;;;5011182;28;20037;-78
2022/06/22 12:02:26;;;;;;;4.30;1.20;;;27.30;44.90;;;;;;5013470;28;20049;-78
2022/06/22 12:05:14;;;;;;;2.35;1.08;;;27.40;44.50;;;;;;5013871;28;20048;-79
2022/06/22 12:07:48;;;;;;;3.88;1.00;;;27.40;44.70;;;;;;5013234;28;20049;-78
2022/06/22 12:10:33;;;;;;;4.80;0.90;;;27.60;43.20;;;;;;5013311;28;20021;-79
2022/06/22 12:13:17;;;;;;;1.77;0.90;;;27.70;42.70;;;;;;5014061;28;20029;-79
2022/06/22 12:15:57;;;;;;;8.25;1.00;;;27.60;42.80;;;;;;5013767;28;20057;-81
2022/06/22 12:18:49;;;;;;;3.95;0.82;;;27.60;43.10;;;;;;5014184;28;20109;-80
2022/06/22 12:21:40;;;;;;;3.45;1.00;;;27.70;42.20;;;;;;5013032;28;20463;-80
2022/06/22 12:24:23;;;;;;;3.92;1.58;;;27.50;42.30;;;;;;5013218;28;20261;-79
2022/06/22 12:27:35;;;;;;;2.78;0.70;;;27.40;41.60;;;;;;5013648;28;20580;-81
2022/06/22 12:30:27;;;;;;;9.90;0.95;;;27.40;41.60;;;;;;5013188;28;20357;-79
2022/06/22 12:33:07;;;;;;;1.98;0.80;;;27.40;41.00;;;;;;5014296;28;20026;-79
2022/06/22 12:35:42;;;;;;;2.47;1.00;;;27.30;40.60;;;;;;5015080;28;20046;-79
2022/06/22 12:38:20;;;;;;;4.78;0.95;;;27.40;40.80;;;;;;5014824;28;20034;-78
2022/06/22 12:41:19;;;;;;;3.88;0.68;;;27.20;41.10;;;;;;5013880;28;20422;-79
2022/06/22 12:44:20;;;;;;;2.10;0.80;;;27.00;41.60;;;;;;5014628;28;20022;-79
2022/06/22 12:47:43;;;;;;;1.63;0.68;;;27.20;41.90;;;;;;5004742;28;20375;-80
2022/06/22 12:50:27;;;;;;;3.42;0.80;;;27.30;42.00;;;;;;5012245;28;20489;-78
2022/06/22 12:53:01;;;;;;;4.97;0.65;;;27.50;42.50;;;;;;5011330;28;20144;-79
2022/06/22 12:55:33;;;;;;;1.58;0.60;;;27.40;42.30;;;;;;5012361;28;20029;-79
2022/06/22 12:58:05;;;;;;;3.55;1.17;;;27.50;41.70;;;;;;5013824;28;20103;-81
2022/06/22 13:00:34;;;;;;;4.53;0.80;;;27.50;41.40;;;;;;5012459;28;20057;-80
2022/06/22 13:03:01;;;;;;;3.58;1.00;;;27.60;41.50;;;;;;5011787;28;20073;-78
2022/06/22 13:05:36;;;;;;;3.70;0.70;;;27.60;40.90;;;;;;5010945;28;20037;-78
2022/06/22 13:08:09;;;;;;;3.38;1.02;;;27.50;40.20;;;;;;5010935;28;20030;-80
2022/06/22 13:10:40;;;;;;;2.50;0.65;;;27.50;40.60;;;;;;5010191;28;20072;-80
2022/06/22 13:13:25;;;;;;;2.80;0.90;;;27.50;40.50;;;;;;5011296;28;20026;-78
2022/06/22 13:16:11;;;;;;;7.95;1.73;;;27.50;40.50;;;;;;5010635;28;20061;-80
2022/06/22 13:19:01;;;;;;;2.63;0.80;;;27.60;40.90;;;;;;5011143;28;20527;-80
2022/06/22 13:21:30;;;;;;;1.42;0.77;;;27.60;39.70;;;;;;5012714;28;20456;-78
2022/06/22 13:24:28;;;;;;;0.82;0.50;;;27.70;39.10;;;;;;5013178;28;20034;-79
2022/06/22 13:27:41;;;;;;;4.15;1.63;;;27.70;39.10;;;;;;5012940;28;20026;-78
2022/06/22 13:30:28;;;;;;;1.63;0.70;;;27.50;38.60;;;;;;5011825;28;20042;-79
2022/06/22 13:33:17;;;;;;;3.65;0.82;;;27.30;38.80;;;;;;5012275;28;20026;-79
2022/06/22 13:35:53;;;;;;;2.28;0.70;;;27.30;39.20;;;;;;5011961;28;20046;-79
2022/06/22 13:39:01;;;;;;;2.05;1.08;;;27.30;39.20;;;;;;5011823;28;20080;-78
2022/06/22 13:41:57;;;;;;;2.53;1.02;;;27.30;38.50;;;;;;5011774;28;20117;-78
2022/06/22 13:44:37;;;;;;;1.38;0.70;;;27.30;39.10;;;;;;5010434;28;20373;-79
2022/06/22 13:47:36;;;;;;;1.05;0.75;;;27.30;38.90;;;;;;5010214;28;20056;-78
2022/06/22 13:51:13;;;;;;;1.65;0.70;;;27.20;38.40;;;;;;5010515;28;20065;-79
2022/06/22 13:53:41;;;;;;;2.05;0.80;;;27.20;38.40;;;;;;4993416;28;20440;-77
2022/06/22 13:56:27;;;;;;;2.90;0.93;;;27.20;38.60;;;;;;5010336;28;20552;-78
2022/06/22 13:58:55;;;;;;;2.05;1.10;;;27.20;38.70;;;;;;5010387;28;20026;-76
2022/06/22 14:01:35;;;;;;;1.85;1.48;;;27.00;38.10;;;;;;5010240;28;20053;-76
2022/06/22 14:04:18;;;;;;;8.18;1.50;;;26.90;38.20;;;;;;5010596;28;20029;-76
2022/06/22 14:06:55;;;;;;;5.32;0.90;;;27.00;38.80;;;;;;5010123;28;20040;-78
2022/06/22 14:09:29;;;;;;;2.95;1.27;;;27.00;38.80;;;;;;5013982;28;20030;-76
2022/06/22 14:12:11;;;;;;;1.40;0.70;;;27.10;38.90;;;;;;5015366;28;20026;-76
2022/06/22 14:14:45;;;;;;;2.20;1.10;;;27.10;38.40;;;;;;5015287;28;20038;-77